Time;durP1;ratioP1;P1;durP2;ratioP2;P2;SDS_P1;SDS_P2;PMS_P1;PMS_P2;Temp;Humidity;BMP_temperature;BMP_pressure;BME280_temperature;BME280_humidity;BME280_pressure;Samples;Min_cycle;Max_cycle;Signal;HPM_P1;HPM_P2
2022/09/18 00:00:04;;;;;;;;;;;10.10;99.90;;;;;;5049005;28;19927;-71
2022/09/18 00:02:30;;;;;;;;;;;10.50;99.90;;;;;;5049558;28;20328;-71
2022/09/18 00:04:56;;;;;;;;;;;10.50;99.90;;;;;;5049248;28;19925;-71
2022/09/18 00:07:21;;;;;;;;;;;10.40;99.90;;;;;;5032191;28;19970;-72
2022/09/18 00:09:47;;;;;;;;;;;10.30;99.90;;;;;;5046409;28;19960;-71
2022/09/18 00:12:13;;;;;;;;;;;10.10;99.90;;;;;;5049243;28;19939;-71
2022/09/18 00:14:38;;;;;;;;;;;10.30;99.90;;;;;;5049206;28;20286;-71
2022/09/18 00:17:04;;;;;;;;;;;10.30;99.90;;;;;;5052613;28;20348;-72
2022/09/18 00:19:29;;;;;;;;;;;10.40;99.90;;;;;;5034777;28;19921;-71
2022/09/18 00:21:55;;;;;;;;;;;10.50;99.90;;;;;;5053128;28;20376;-72
2022/09/18 00:24:22;;;;;;;;;;;10.40;99.90;;;;;;5053175;28;19917;-72
2022/09/18 00:26:47;;;;;;;;;;;10.50;99.90;;;;;;5052892;28;20006;-71
2022/09/18 00:29:14;;;;;;;;;;;10.50;99.90;;;;;;5052851;28;20411;-70
2022/09/18 00:31:40;;;;;;;;;;;10.40;99.90;;;;;;5052670;28;19917;-71
2022/09/18 00:34:07;;;;;;;;;;;10.60;99.90;;;;;;5035816;28;19927;-71
2022/09/18 00:36:34;;;;;;;;;;;10.50;99.90;;;;;;5052693;28;19927;-71
2022/09/18 00:38:59;;;;;;;;;;;10.70;99.90;;;;;;5052472;28;20020;-71
2022/09/18 00:41:30;;;;;;;;;;;10.70;99.90;;;;;;5055153;28;20004;-71
2022/09/18 00:44:14;;;;;;;;;;;10.50;99.90;;;;;;5055667;28;20741;-72
2022/09/18 00:46:42;;;;;;;;;;;10.70;99.90;;;;;;5055613;28;19920;-70
2022/09/18 00:49:14;;;;;;;;;;;10.30;99.90;;;;;;5055803;28;19970;-70
2022/09/18 00:51:40;;;;;;;;;;;10.40;99.90;;;;;;5056115;28;19939;-70
2022/09/18 00:54:09;;;;;;;;;;;10.50;99.90;;;;;;5039288;28;20368;-71
2022/09/18 00:56:34;;;;;;;;;;;10.40;99.90;;;;;;5055445;28;20355;-71
2022/09/18 00:59:00;;;;;;;;;;;10.40;99.90;;;;;;5038116;28;19920;-71
2022/09/18 01:01:25;;;;;;;;;;;10.50;99.90;;;;;;5055850;28;19948;-71
2022/09/18 01:03:51;;;;;;;;;;;10.30;99.90;;;;;;5039198;28;19923;-72
2022/09/18 01:06:35;;;;;;;;;;;10.70;99.90;;;;;;5055361;28;19970;-72
2022/09/18 01:09:04;;;;;;;;;;;10.70;99.90;;;;;;5055179;28;19918;-72
2022/09/18 01:11:32;;;;;;;;;;;10.30;99.90;;;;;;5055401;28;20283;-71
2022/09/18 01:14:21;;;;;;;;;;;10.60;99.90;;;;;;5055271;28;20019;-71
2022/09/18 01:16:56;;;;;;;;;;;10.50;99.90;;;;;;5032224;28;19920;-72
2022/09/18 01:19:40;;;;;;;;;;;10.20;99.90;;;;;;5054987;28;19920;-71
2022/09/18 01:22:15;;;;;;;;;;;10.50;99.90;;;;;;5054768;28;20375;-72
2022/09/18 01:24:40;;;;;;;;;;;10.20;99.90;;;;;;5051939;28;19959;-71
2022/09/18 01:27:09;;;;;;;;;;;10.20;99.90;;;;;;5054185;28;20417;-71
2022/09/18 01:29:52;;;;;;;;;;;10.30;99.90;;;;;;5055198;28;19928;-71
2022/09/18 01:32:20;;;;;;;;;;;10.40;99.90;;;;;;5055412;28;20065;-71
2022/09/18 01:34:55;;;;;;;;;;;10.10;99.90;;;;;;5054991;28;20287;-71
2022/09/18 01:37:31;;;;;;;;;;;10.00;99.90;;;;;;5054639;28;19927;-71
2022/09/18 01:40:15;;;;;;;;;;;10.20;99.90;;;;;;5054964;28;20394;-71
2022/09/18 01:42:43;;;;;;;;;;;10.40;99.90;;;;;;5054820;28;20029;-71
2022/09/18 01:45:15;;;;;;;;;;;10.10;99.90;;;;;;5054597;28;19996;-71
2022/09/18 01:47:45;;;;;;;;;;;10.10;99.90;;;;;;5037756;28;19921;-71
2022/09/18 01:50:11;;;;;;;;;;;10.40;99.90;;;;;;5054403;28;19932;-71
2022/09/18 01:52:45;;;;;;;;;;;10.40;99.90;;;;;;5055122;28;19917;-72
2022/09/18 01:55:14;;;;;;;;;;;10.50;99.90;;;;;;5054119;28;20252;-70
2022/09/18 01:57:43;;;;;;;;;;;10.10;99.90;;;;;;5054402;28;19924;-70
2022/09/18 02:00:11;;;;;;;;;;;10.40;99.90;;;;;;5053625;28;20359;-71
2022/09/18 02:02:39;;;;;;;;;;;10.40;99.90;;;;;;5054071;28;20305;-71
2022/09/18 02:05:07;;;;;;;;;;;10.40;99.90;;;;;;5053641;28;19932;-71
2022/09/18 02:07:35;;;;;;;;;;;10.20;99.90;;;;;;5053823;28;19952;-71
2022/09/18 02:10:02;;;;;;;;;;;10.40;99.90;;;;;;5053985;28;19963;-71
2022/09/18 02:12:28;;;;;;;;;;;10.10;99.90;;;;;;5054108;28;19999;-70
2022/09/18 02:14:56;;;;;;;;;;;10.40;99.90;;;;;;5051601;28;19932;-70
2022/09/18 02:17:42;;;;;;;;;;;10.10;99.90;;;;;;5050845;28;19952;-70
2022/09/18 02:20:12;;;;;;;;;;;10.20;99.90;;;;;;5022980;28;19917;-70
2022/09/18 02:22:40;;;;;;;;;;;10.40;99.90;;;;;;5031905;28;19917;-70
2022/09/18 02:25:07;;;;;;;;;;;10.30;99.90;;;;;;5038012;28;19985;-71
2022/09/18 02:27:35;;;;;;;;;;;10.30;99.90;;;;;;5054584;28;19927;-70
2022/09/18 02:30:03;;;;;;;;;;;10.30;99.90;;;;;;5053410;28;20363;-70
2022/09/18 02:32:29;;;;;;;;;;;10.40;99.90;;;;;;5046709;28;20392;-70
2022/09/18 02:34:54;;;;;;;;;;;10.40;99.90;;;;;;5030038;28;19925;-71
2022/09/18 02:37:20;;;;;;;;;;;10.10;99.90;;;;;;5053166;28;19924;-70
2022/09/18 02:39:45;;;;;;;;;;;10.40;99.90;;;;;;5052523;28;19917;-70
2022/09/18 02:42:18;;;;;;;;;;;10.30;99.90;;;;;;5050268;28;19921;-70
2022/09/18 02:44:49;;;;;;;;;;;10.20;99.90;;;;;;5050119;28;20654;-70
2022/09/18 02:47:34;;;;;;;;;;;10.10;99.90;;;;;;5050004;28;19919;-70
2022/09/18 02:50:08;;;;;;;;;;;10.10;99.90;;;;;;5039432;28;19999;-70
2022/09/18 02:52:44;;;;;;;;;;;10.10;99.90;;;;;;5048486;28;19921;-70
2022/09/18 02:55:16;;;;;;;;;;;10.40;99.90;;;;;;5050020;28;19991;-70
2022/09/18 02:57:47;;;;;;;;;;;10.20;99.90;;;;;;5050102;28;19920;-70
2022/09/18 03:00:17;;;;;;;;;;;10.50;99.90;;;;;;5049511;28;19917;-71
2022/09/18 03:02:43;;;;;;;;;;;10.50;99.90;;;;;;5033880;28;19923;-72
2022/09/18 03:05:09;;;;;;;;;;;10.30;99.90;;;;;;5049826;28;20035;-71
2022/09/18 03:07:34;;;;;;;;;;;10.40;99.90;;;;;;5033590;28;19948;-71
2022/09/18 03:10:00;;;;;;;;;;;10.60;99.90;;;;;;5050135;28;20007;-71
2022/09/18 03:12:26;;;;;;;;;;;10.50;99.90;;;;;;5017282;28;20418;-72
2022/09/18 03:14:52;;;;;;;;;;;10.40;99.90;;;;;;5049491;28;19921;-72
2022/09/18 03:17:18;;;;;;;;;;;10.60;99.90;;;;;;5033118;28;19950;-72
2022/09/18 03:19:43;;;;;;;;;;;10.50;99.90;;;;;;5049791;28;19920;-72
2022/09/18 03:22:10;;;;;;;;;;;10.90;99.90;;;;;;5049522;28;20352;-72
2022/09/18 03:24:36;;;;;;;;;;;10.30;99.90;;;;;;5049349;28;19921;-72
2022/09/18 03:27:02;;;;;;;;;;;10.30;99.90;;;;;;5029705;28;19921;-72
2022/09/18 03:29:27;;;;;;;;;;;10.70;99.90;;;;;;5043579;28;19924;-72
2022/09/18 03:31:53;;;;;;;;;;;10.20;99.90;;;;;;5049255;28;19920;-71
2022/09/18 03:34:18;;;;;;;;;;;10.60;99.90;;;;;;5049376;28;19963;-71
2022/09/18 03:36:45;;;;;;;;;;;10.70;99.90;;;;;;5049396;28;19924;-71
2022/09/18 03:39:11;;;;;;;;;;;10.70;99.90;;;;;;5032880;28;19921;-71
2022/09/18 03:41:37;;;;;;;;;;;10.30;99.90;;;;;;5049681;28;19931;-71
2022/09/18 03:44:03;;;;;;;;;;;10.70;99.90;;;;;;5049318;28;20016;-71
2022/09/18 03:46:29;;;;;;;;;;;10.10;99.90;;;;;;5049929;28;19921;-71
2022/09/18 03:48:54;;;;;;;;;;;10.10;99.90;;;;;;5049119;28;20379;-71
2022/09/18 03:51:20;;;;;;;;;;;10.60;99.90;;;;;;5051837;28;19921;-71
2022/09/18 03:53:46;;;;;;;;;;;10.10;99.90;;;;;;5053108;28;20368;-71
2022/09/18 03:56:12;;;;;;;;;;;10.50;99.90;;;;;;5053651;28;19920;-71
2022/09/18 03:58:38;;;;;;;;;;;10.30;99.90;;;;;;5053438;28;19921;-70
2022/09/18 04:01:04;;;;;;;;;;;10.10;99.90;;;;;;5046092;28;20348;-70
2022/09/18 04:03:29;;;;;;;;;;;10.20;99.90;;;;;;5034345;28;19923;-71
2022/09/18 04:05:55;;;;;;;;;;;10.10;99.90;;;;;;5052315;28;19928;-71
2022/09/18 04:08:20;;;;;;;;;;;10.10;99.90;;;;;;5053382;28;19916;-71
2022/09/18 04:10:46;;;;;;;;;;;10.10;99.90;;;;;;5052593;28;19921;-71
2022/09/18 04:13:12;;;;;;;;;;;10.00;99.90;;;;;;5053381;28;20360;-71
2022/09/18 04:15:37;;;;;;;;;;;10.40;99.90;;;;;;5053048;28;20269;-71
2022/09/18 04:18:03;;;;;;;;;;;10.20;99.90;;;;;;5036146;28;19924;-71
2022/09/18 04:20:28;;;;;;;;;;;10.00;99.90;;;;;;5053142;28;19927;-71
2022/09/18 04:22:54;;;;;;;;;;;10.60;99.90;;;;;;5052779;28;20007;-71
2022/09/18 04:25:19;;;;;;;;;;;10.50;99.90;;;;;;5052789;28;19916;-71
2022/09/18 04:27:45;;;;;;;;;;;10.00;99.90;;;;;;5052428;28;19971;-71
2022/09/18 04:30:11;;;;;;;;;;;10.60;99.90;;;;;;5052446;28;19931;-71
2022/09/18 04:32:36;;;;;;;;;;;10.00;99.90;;;;;;5052545;28;19928;-71
2022/09/18 04:35:02;;;;;;;;;;;9.90;99.90;;;;;;5051953;28;19928;-71
2022/09/18 04:37:27;;;;;;;;;;;10.20;99.90;;;;;;5033198;28;19917;-71
2022/09/18 04:39:53;;;;;;;;;;;10.10;99.90;;;;;;5050653;28;20265;-71
2022/09/18 04:42:18;;;;;;;;;;;10.50;99.90;;;;;;5032546;28;20602;-71
2022/09/18 04:44:44;;;;;;;;;;;10.00;99.90;;;;;;5051846;28;19921;-71
2022/09/18 04:47:10;;;;;;;;;;;9.90;99.90;;;;;;5052498;28;19993;-71
2022/09/18 04:49:35;;;;;;;;;;;9.90;99.90;;;;;;5052195;28;19965;-71
2022/09/18 04:52:01;;;;;;;;;;;10.30;99.90;;;;;;5051883;28;19916;-70
2022/09/18 04:54:26;;;;;;;;;;;10.10;99.90;;;;;;5052986;28;19924;-70
2022/09/18 04:56:52;;;;;;;;;;;10.50;99.90;;;;;;5035893;28;19924;-70
2022/09/18 04:59:17;;;;;;;;;;;10.50;99.90;;;;;;5036277;28;19916;-71
2022/09/18 05:01:43;;;;;;;;;;;10.00;99.90;;;;;;5034752;28;19921;-71
2022/09/18 05:04:09;;;;;;;;;;;10.00;99.90;;;;;;5052229;28;20348;-70
2022/09/18 05:06:34;;;;;;;;;;;10.20;99.90;;;;;;5051687;28;20343;-71
2022/09/18 05:09:00;;;;;;;;;;;10.10;99.90;;;;;;5051500;28;19971;-71
2022/09/18 05:11:26;;;;;;;;;;;10.60;99.90;;;;;;5051929;28;19923;-70
2022/09/18 05:13:55;;;;;;;;;;;10.40;99.90;;;;;;5051274;28;20082;-70
2022/09/18 05:16:21;;;;;;;;;;;10.10;99.90;;;;;;5051607;28;19967;-71
2022/09/18 05:18:47;;;;;;;;;;;10.00;99.90;;;;;;5051615;28;20385;-71
2022/09/18 05:21:13;;;;;;;;;;;10.00;99.90;;;;;;5051262;28;19920;-72
2022/09/18 05:23:38;;;;;;;;;;;10.10;99.90;;;;;;5034625;28;19943;-71
2022/09/18 05:26:04;;;;;;;;;;;10.00;99.90;;;;;;5035283;28;19943;-70
2022/09/18 05:28:29;;;;;;;;;;;10.50;99.90;;;;;;5051455;28;19921;-71
2022/09/18 05:30:59;;;;;;;;;;;10.30;99.90;;;;;;5034824;28;19917;-71
2022/09/18 05:33:25;;;;;;;;;;;10.50;99.90;;;;;;5051433;28;19916;-71
2022/09/18 05:35:54;;;;;;;;;;;10.40;99.90;;;;;;5034766;28;19921;-71
2022/09/18 05:38:20;;;;;;;;;;;10.60;99.90;;;;;;5051230;28;19917;-71
2022/09/18 05:40:47;;;;;;;;;;;10.20;99.90;;;;;;5031765;28;19962;-71
2022/09/18 05:43:13;;;;;;;;;;;10.20;99.90;;;;;;5031188;28;19932;-71
2022/09/18 05:45:39;;;;;;;;;;;10.20;99.90;;;;;;5050796;28;19972;-72
2022/09/18 05:48:05;;;;;;;;;;;10.40;99.90;;;;;;5051383;28;19920;-71
2022/09/18 05:50:31;;;;;;;;;;;10.60;99.90;;;;;;5051257;28;19921;-71
2022/09/18 05:52:57;;;;;;;;;;;10.10;99.90;;;;;;5051230;28;19928;-71
2022/09/18 05:55:23;;;;;;;;;;;10.50;99.90;;;;;;5051161;28;19921;-71
2022/09/18 05:57:52;;;;;;;;;;;10.20;99.90;;;;;;5051305;28;20383;-71
2022/09/18 06:00:18;;;;;;;;;;;10.60;99.90;;;;;;5050753;28;19920;-72
2022/09/18 06:02:50;;;;;;;;;;;10.20;99.90;;;;;;5051462;28;19920;-71
2022/09/18 06:05:16;;;;;;;;;;;10.20;99.90;;;;;;5034082;28;19927;-71
2022/09/18 06:07:41;;;;;;;;;;;10.60;99.90;;;;;;5050348;28;19925;-71
2022/09/18 06:10:07;;;;;;;;;;;10.20;99.90;;;;;;5030507;28;19972;-71
2022/09/18 06:12:32;;;;;;;;;;;10.70;99.90;;;;;;5048475;28;19968;-71
2022/09/18 06:14:58;;;;;;;;;;;10.30;99.90;;;;;;5050117;28;19924;-70
2022/09/18 06:17:24;;;;;;;;;;;10.50;99.90;;;;;;5050987;28;19928;-70
2022/09/18 06:19:49;;;;;;;;;;;10.50;99.90;;;;;;5050601;28;20458;-71
2022/09/18 06:22:15;;;;;;;;;;;10.50;99.90;;;;;;5050489;28;20198;-70
2022/09/18 06:24:40;;;;;;;;;;;10.40;99.90;;;;;;5047005;28;19986;-70
2022/09/18 06:27:06;;;;;;;;;;;10.80;99.90;;;;;;5050052;28;19920;-70
2022/09/18 06:29:31;;;;;;;;;;;10.50;99.90;;;;;;5050544;28;19924;-70
2022/09/18 06:31:57;;;;;;;;;;;10.90;99.90;;;;;;5049795;28;19971;-71
2022/09/18 06:34:23;;;;;;;;;;;10.20;99.90;;;;;;5050675;28;19920;-71
2022/09/18 06:36:48;;;;;;;;;;;10.30;99.90;;;;;;5050422;28;20303;-71
2022/09/18 06:39:14;;;;;;;;;;;11.00;99.90;;;;;;5050545;28;19943;-71
2022/09/18 06:41:39;;;;;;;;;;;10.30;99.90;;;;;;5050167;28;19971;-71
2022/09/18 06:44:05;;;;;;;;;;;10.50;99.90;;;;;;5050666;28;19927;-71
2022/09/18 06:46:30;;;;;;;;;;;10.90;99.90;;;;;;5050118;28;20398;-72
2022/09/18 06:48:56;;;;;;;;;;;10.70;99.90;;;;;;5050200;28;19924;-71
2022/09/18 06:51:21;;;;;;;;;;;10.50;99.90;;;;;;5050201;28;19912;-71
2022/09/18 06:53:47;;;;;;;;;;;10.50;99.90;;;;;;5050067;28;19917;-71
2022/09/18 06:56:13;;;;;;;;;;;10.70;99.90;;;;;;5050040;28;20307;-71
2022/09/18 06:58:38;;;;;;;;;;;10.80;99.90;;;;;;5049984;28;19920;-71
2022/09/18 07:01:04;;;;;;;;;;;10.80;99.90;;;;;;5030250;28;19921;-71
2022/09/18 07:03:29;;;;;;;;;;;11.10;99.90;;;;;;5043238;28;20303;-71
2022/09/18 07:05:55;;;;;;;;;;;10.70;99.90;;;;;;5049546;28;19921;-71
2022/09/18 07:08:20;;;;;;;;;;;10.70;99.90;;;;;;5049441;28;19917;-71
2022/09/18 07:10:46;;;;;;;;;;;10.90;99.90;;;;;;5032925;28;20119;-71
2022/09/18 07:13:11;;;;;;;;;;;11.10;99.90;;;;;;5013672;28;19921;-72
2022/09/18 07:15:37;;;;;;;;;;;10.60;99.90;;;;;;5044702;28;19928;-70
2022/09/18 07:18:04;;;;;;;;;;;10.60;99.90;;;;;;5026402;28;19921;-71
2022/09/18 07:20:29;;;;;;;;;;;10.60;99.90;;;;;;5045148;28;20030;-71
2022/09/18 07:22:57;;;;;;;;;;;11.10;99.90;;;;;;5032088;28;19916;-70
2022/09/18 07:25:23;;;;;;;;;;;11.10;99.90;;;;;;5036942;28;19921;-70
2022/09/18 07:27:49;;;;;;;;;;;10.70;99.90;;;;;;5049186;28;20410;-70
2022/09/18 07:30:14;;;;;;;;;;;10.80;99.90;;;;;;5029299;28;19917;-79
2022/09/18 07:32:40;;;;;;;;;;;11.10;99.90;;;;;;5048867;28;19924;-79
2022/09/18 07:35:06;;;;;;;;;;;10.70;99.90;;;;;;5028366;28;19925;-79
2022/09/18 07:37:32;;;;;;;;;;;10.80;99.90;;;;;;5043199;28;19920;-79
2022/09/18 07:39:58;;;;;;;;;;;11.00;99.90;;;;;;5049684;28;19939;-80
2022/09/18 07:42:25;;;;;;;;;;;10.60;99.90;;;;;;5049470;28;20319;-78
2022/09/18 07:44:50;;;;;;;;;;;10.70;99.90;;;;;;5050009;28;20351;-78
2022/09/18 07:47:16;;;;;;;;;;;10.50;99.90;;;;;;5049919;28;19968;-79
2022/09/18 07:49:42;;;;;;;;;;;11.00;99.90;;;;;;5042699;28;20405;-79
2022/09/18 07:52:07;;;;;;;;;;;10.50;99.90;;;;;;5040002;28;19999;-80
2022/09/18 07:54:33;;;;;;;;;;;10.90;99.90;;;;;;5048357;28;20455;-79
2022/09/18 07:56:59;;;;;;;;;;;11.10;99.90;;;;;;5050497;28;19928;-79
2022/09/18 07:59:24;;;;;;;;;;;10.50;99.90;;;;;;5049083;28;19917;-79
2022/09/18 08:01:51;;;;;;;;;;;10.80;99.90;;;;;;5042207;28;19917;-79
2022/09/18 08:04:17;;;;;;;;;;;11.10;99.90;;;;;;5042952;28;20392;-79
2022/09/18 08:06:42;;;;;;;;;;;10.80;99.90;;;;;;5049221;28;19921;-79
2022/09/18 08:09:08;;;;;;;;;;;11.10;99.90;;;;;;5032543;28;20567;-80
2022/09/18 08:11:33;;;;;;;;;;;11.10;99.90;;;;;;5032325;28;19926;-80
2022/09/18 08:13:59;;;;;;;;;;;11.20;99.90;;;;;;5049522;28;19992;-80
2022/09/18 08:16:25;;;;;;;;;;;11.00;99.90;;;;;;5033730;28;19964;-80
2022/09/18 08:18:50;;;;;;;;;;;10.80;99.90;;;;;;5000461;28;20040;-80
2022/09/18 08:21:17;;;;;;;;;;;11.00;99.90;;;;;;5042263;28;19928;-79
2022/09/18 08:23:43;;;;;;;;;;;10.60;99.90;;;;;;5029852;28;19917;-80
2022/09/18 08:26:08;;;;;;;;;;;11.20;99.90;;;;;;5042649;28;19927;-79
2022/09/18 08:28:34;;;;;;;;;;;10.40;99.90;;;;;;5032228;28;20323;-80
2022/09/18 08:30:59;;;;;;;;;;;10.40;99.90;;;;;;5048803;28;19966;-81
2022/09/18 08:33:25;;;;;;;;;;;10.40;99.90;;;;;;5049203;28;19959;-80
2022/09/18 08:35:50;;;;;;;;;;;10.80;99.90;;;;;;5048950;28;19928;-80
2022/09/18 08:38:16;;;;;;;;;;;10.40;99.90;;;;;;5052419;28;20284;-80
2022/09/18 08:40:53;;;;;;;;;;;10.80;99.90;;;;;;5052891;28;19923;-81
2022/09/18 08:43:38;;;;;;;;;;;10.50;99.90;;;;;;5052368;28;19931;-81
2022/09/18 08:46:07;;;;;;;;;;;10.30;99.90;;;;;;5053031;28;19924;-79
2022/09/18 08:48:38;;;;;;;;;;;10.40;99.90;;;;;;5052886;28;19917;-79
2022/09/18 08:51:12;;;;;;;;;;;10.90;99.90;;;;;;5052666;28;19920;-80
2022/09/18 08:53:40;;;;;;;;;;;11.30;99.90;;;;;;5052788;28;20270;-80
2022/09/18 08:56:10;;;;;;;;;;;11.40;99.90;;;;;;5052394;28;19990;-81
2022/09/18 08:58:38;;;;;;;;;;;11.30;99.90;;;;;;5035960;28;20376;-79
2022/09/18 09:01:10;;;;;;;;;;;11.30;99.90;;;;;;5052341;28;19921;-81
2022/09/18 09:04:05;;;;;;;;;;;10.40;99.90;;;;;;5038450;28;19917;-80
2022/09/18 09:06:58;;;;;;;;;;;10.80;99.90;;;;;;5029349;28;19917;-80
2022/09/18 09:09:27;;;;;;;;;;;10.40;99.90;;;;;;5052327;28;20291;-81
2022/09/18 09:12:02;;;;;;;;;;;11.20;99.90;;;;;;5052518;28;20372;-81
2022/09/18 09:14:48;;;;;;;;;;;11.30;99.90;;;;;;5052280;28;19936;-80
2022/09/18 09:17:29;;;;;;;;;;;11.20;99.90;;;;;;5052077;28;19947;-81
2022/09/18 09:20:04;;;;;;;;;;;10.10;99.90;;;;;;5027384;28;19927;-81
2022/09/18 09:22:39;;;;;;;;;;;10.90;99.90;;;;;;5047799;28;19942;-81
2022/09/18 09:25:04;;;;;;;;;;;10.50;99.90;;;;;;5037849;28;19928;-82
2022/09/18 09:27:38;;;;;;;;;;;11.10;99.90;;;;;;5051991;28;19917;-81
2022/09/18 09:30:05;;;;;;;;;;;10.80;99.90;;;;;;5051837;28;19920;-80
2022/09/18 09:32:40;;;;;;;;;;;11.10;99.90;;;;;;5041932;28;19956;-81
2022/09/18 09:35:15;;;;;;;;;;;11.10;99.90;;;;;;5048853;28;19928;-80
2022/09/18 09:37:43;;;;;;;;;;;11.10;99.90;;;;;;5035799;28;20335;-80
2022/09/18 09:40:22;;;;;;;;;;;10.50;99.90;;;;;;5051777;28;19947;-80
2022/09/18 09:42:50;;;;;;;;;;;10.90;99.90;;;;;;5035189;28;19924;-81
2022/09/18 09:45:23;;;;;;;;;;;11.20;99.90;;;;;;5051761;28;19960;-80
2022/09/18 09:47:55;;;;;;;;;;;10.50;99.90;;;;;;5051467;28;20336;-80
2022/09/18 09:50:28;;;;;;;;;;;11.20;99.90;;;;;;5051369;28;19924;-79
2022/09/18 09:52:56;;;;;;;;;;;10.50;99.90;;;;;;5042060;28;19920;-79
2022/09/18 09:55:35;;;;;;;;;;;10.70;99.90;;;;;;5051226;28;19925;-80
2022/09/18 09:58:09;;;;;;;;;;;11.10;99.90;;;;;;5031642;28;19976;-82
2022/09/18 10:01:01;;;;;;;;;;;11.10;99.90;;;;;;5031797;28;20343;-81
2022/09/18 10:03:37;;;;;;;;;;;11.10;99.90;;;;;;5049052;28;19917;-80
2022/09/18 10:06:08;;;;;;;;;;;10.40;99.90;;;;;;5036919;28;19916;-80
2022/09/18 10:08:33;;;;;;;;;;;10.60;99.90;;;;;;5051211;28;19927;-80
2022/09/18 10:11:00;;;;;;;;;;;11.20;99.90;;;;;;5050829;28;20004;-80
2022/09/18 10:13:52;;;;;;;;;;;11.60;99.90;;;;;;5050947;28;19916;-80
2022/09/18 10:16:21;;;;;;;;;;;10.50;99.90;;;;;;5034135;28;20003;-80
2022/09/18 10:18:48;;;;;;;;;;;11.60;99.90;;;;;;5050722;28;19917;-80
2022/09/18 10:21:18;;;;;;;;;;;11.70;99.90;;;;;;5051151;28;19921;-80
2022/09/18 10:23:49;;;;;;;;;;;10.70;99.90;;;;;;5050975;28;20338;-80
2022/09/18 10:26:22;;;;;;;;;;;10.60;99.90;;;;;;5050472;28;20445;-79
2022/09/18 10:28:48;;;;;;;;;;;11.70;99.90;;;;;;5050621;28;19917;-79
2022/09/18 10:31:14;;;;;;;;;;;11.80;99.90;;;;;;5050448;28;19921;-80
2022/09/18 10:33:41;;;;;;;;;;;10.80;99.90;;;;;;5050409;28;20268;-80
2022/09/18 10:36:26;;;;;;;;;;;11.60;99.90;;;;;;5033786;28;19925;-80
2022/09/18 10:38:52;;;;;;;;;;;11.50;99.90;;;;;;5016996;28;19925;-80
2022/09/18 10:41:26;;;;;;;;;;;11.60;99.90;;;;;;5022968;28;19943;-81
2022/09/18 10:44:01;;;;;;;;;;;11.70;99.90;;;;;;5049964;28;20011;-80
2022/09/18 10:46:29;;;;;;;;;;;11.70;99.90;;;;;;5033581;28;20432;-80
2022/09/18 10:48:56;;;;;;;;;;;11.10;99.90;;;;;;5030515;28;19917;-80
2022/09/18 10:51:24;;;;;;;;;;;11.20;99.90;;;;;;5030100;28;19927;-80
2022/09/18 10:54:03;;;;;;;;;;;11.20;99.90;;;;;;5047567;28;19921;-80
2022/09/18 10:56:29;;;;;;;;;;;11.50;99.90;;;;;;5049932;28;19924;-80
2022/09/18 10:58:55;;;;;;;;;;;11.50;99.90;;;;;;5046833;28;19979;-80
2022/09/18 11:01:22;;;;;;;;;;;11.80;99.90;;;;;;5039763;28;19920;-80
2022/09/18 11:03:58;;;;;;;;;;;12.20;99.90;;;;;;5050137;28;19927;-80
2022/09/18 11:06:25;;;;;;;;;;;12.10;99.90;;;;;;5050097;28;19920;-80
2022/09/18 11:08:52;;;;;;;;;;;12.60;99.90;;;;;;5049885;28;19920;-79
2022/09/18 11:11:28;;;;;;;;;;;12.70;99.90;;;;;;5033068;28;19924;-80
2022/09/18 11:14:15;;;;;;;;;;;12.60;99.90;;;;;;5049650;28;19928;-79
2022/09/18 11:16:41;;;;;;;;;;;12.60;99.90;;;;;;5049868;28;19921;-79
2022/09/18 11:19:11;;;;;;;;;;;12.70;99.90;;;;;;5049548;28;19916;-79
2022/09/18 11:21:44;;;;;;;;;;;12.60;99.90;;;;;;5049665;28;19928;-79
2022/09/18 11:24:16;;;;;;;;;;;12.70;99.90;;;;;;5034170;28;19975;-78
2022/09/18 11:26:48;;;;;;;;;;;12.70;99.90;;;;;;5047566;28;19971;-79
2022/09/18 11:29:20;;;;;;;;;;;12.90;99.90;;;;;;5049729;28;19928;-78
2022/09/18 11:31:48;;;;;;;;;;;13.00;99.90;;;;;;5032945;28;20355;-80
2022/09/18 11:34:20;;;;;;;;;;;13.10;99.90;;;;;;5049534;28;19975;-79
2022/09/18 11:36:47;;;;;;;;;;;13.10;99.90;;;;;;5049536;28;20327;-79
2022/09/18 11:39:13;;;;;;;;;;;13.20;99.90;;;;;;5049738;28;19939;-78
2022/09/18 11:41:39;;;;;;;;;;;13.20;99.90;;;;;;5051697;28;19920;-78
2022/09/18 11:44:15;;;;;;;;;;;13.30;99.90;;;;;;5029236;28;19924;-79
2022/09/18 11:46:41;;;;;;;;;;;13.20;99.90;;;;;;5026105;28;19923;-78
2022/09/18 11:49:09;;;;;;;;;;;13.30;99.90;;;;;;5052687;28;19920;-78
2022/09/18 11:51:53;;;;;;;;;;;13.30;99.90;;;;;;5039561;28;19974;-78
2022/09/18 11:54:38;;;;;;;;;;;13.40;99.90;;;;;;5040401;28;19920;-79
2022/09/18 11:57:09;;;;;;;;;;;13.30;99.90;;;;;;5052345;28;19962;-79
2022/09/18 11:59:43;;;;;;;;;;;13.40;99.90;;;;;;5052643;28;19931;-79
2022/09/18 12:02:18;;;;;;;;;;;13.40;99.90;;;;;;5052256;28;19973;-79
2022/09/18 12:04:51;;;;;;;;;;;13.40;99.90;;;;;;5052752;28;20074;-79
2022/09/18 12:07:28;;;;;;;;;;;13.40;99.90;;;;;;5052155;28;20396;-79
2022/09/18 12:09:57;;;;;;;;;;;13.40;99.90;;;;;;5052689;28;20284;-78
2022/09/18 12:12:34;;;;;;;;;;;13.50;99.90;;;;;;5055029;28;20367;-78
2022/09/18 12:15:03;;;;;;;;;;;13.50;99.90;;;;;;5056204;28;19956;-79
2022/09/18 12:17:35;;;;;;;;;;;13.50;99.90;;;;;;5074252;28;19999;-79
2022/09/18 12:20:04;;;;;;;;;;;13.60;99.90;;;;;;5056154;28;19920;-79
2022/09/18 12:22:44;;;;;;;;;;;13.60;99.90;;;;;;5056250;28;19927;-79
2022/09/18 12:25:11;;;;;;;;;;;13.70;99.90;;;;;;5056086;28;19949;-79
2022/09/18 12:27:40;;;;;;;;;;;13.70;99.90;;;;;;5056432;28;19924;-79
2022/09/18 12:30:10;;;;;;;;;;;13.80;99.90;;;;;;5056031;28;19920;-79
2022/09/18 12:32:38;;;;;;;;;;;13.70;99.90;;;;;;5039775;28;19986;-79
2022/09/18 12:35:24;;;;;;;;;;;13.70;99.90;;;;;;5055846;28;19974;-79
2022/09/18 12:38:09;;;;;;;;;;;13.80;99.90;;;;;;5056029;28;19916;-79
2022/09/18 12:40:46;;;;;;;;;;;13.80;99.90;;;;;;5055714;28;19932;-79
2022/09/18 12:43:15;;;;;;;;;;;13.70;99.90;;;;;;5055718;28;20309;-80
2022/09/18 12:45:47;;;;;;;;;;;13.60;99.90;;;;;;5055931;28;19916;-79
2022/09/18 12:48:19;;;;;;;;;;;13.40;99.90;;;;;;5056053;28;19916;-79
2022/09/18 12:50:45;;;;;;;;;;;13.40;99.90;;;;;;5041973;28;19962;-79
2022/09/18 12:53:10;;;;;;;;;;;13.40;99.90;;;;;;5055704;28;19920;-78
2022/09/18 12:55:42;;;;;;;;;;;13.40;99.90;;;;;;5055439;28;19999;-79
2022/09/18 12:58:23;;;;;;;;;;;13.40;99.90;;;;;;5039284;28;19969;-79
2022/09/18 13:00:49;;;;;;;;;;;13.50;99.90;;;;;;5055565;28;20268;-79
2022/09/18 13:03:25;;;;;;;;;;;13.50;99.90;;;;;;5044537;28;19920;-80
2022/09/18 13:06:11;;;;;;;;;;;13.60;99.90;;;;;;5053879;28;19959;-79
2022/09/18 13:08:42;;;;;;;;;;;13.60;99.90;;;;;;5055482;28;20051;-79
2022/09/18 13:11:26;;;;;;;;;;;13.70;99.90;;;;;;5055148;28;20406;-79
2022/09/18 13:13:54;;;;;;;;;;;13.70;99.90;;;;;;5055170;28;19917;-78
2022/09/18 13:16:34;;;;;;;;;;;13.80;99.90;;;;;;5055176;28;20011;-79
2022/09/18 13:19:08;;;;;;;;;;;13.80;99.90;;;;;;5055557;28;19920;-79
2022/09/18 13:21:40;;;;;;;;;;;13.80;99.90;;;;;;5055209;28;19968;-79
2022/09/18 13:24:10;;;;;;;;;;;13.80;99.90;;;;;;5043477;28;19920;-80
2022/09/18 13:26:37;;;;;;;;;;;13.50;99.90;;;;;;5068785;28;19920;-80
2022/09/18 13:29:03;;;;;;;;;;;12.80;99.90;;;;;;5055529;28;19917;-79
2022/09/18 13:31:28;;;;;;;;;;;12.30;99.90;;;;;;5073032;28;20448;-79
2022/09/18 13:34:04;;;;;;;;;;;12.00;99.90;;;;;;5055516;28;19920;-79
2022/09/18 13:36:34;;;;;;;;;;;11.70;99.90;;;;;;5055003;28;19943;-79
2022/09/18 13:39:16;;;;;;;;;;;11.90;99.90;;;;;;5054932;28;19924;-80
2022/09/18 13:41:42;;;;;;;;;;;11.90;99.90;;;;;;5053064;28;20027;-79
2022/09/18 13:44:14;;;;;;;;;;;12.00;99.90;;;;;;5042450;28;20024;-78
2022/09/18 13:46:40;;;;;;;;;;;12.10;99.90;;;;;;5054886;28;20020;-80
2022/09/18 13:49:18;;;;;;;;;;;12.20;99.90;;;;;;5054986;28;20030;-80
2022/09/18 13:51:44;;;;;;;;;;;12.30;99.90;;;;;;5038253;28;19970;-80
2022/09/18 13:54:09;;;;;;;;;;;12.40;99.90;;;;;;5020995;28;20383;-80
2022/09/18 13:56:55;;;;;;;;;;;12.50;99.90;;;;;;5046757;28;19974;-79
2022/09/18 13:59:21;;;;;;;;;;;12.60;99.90;;;;;;5041044;28;19969;-79
2022/09/18 14:01:53;;;;;;;;;;;12.60;99.90;;;;;;5054718;28;20370;-80
2022/09/18 14:04:37;;;;;;;;;;;12.70;99.90;;;;;;5054566;28;19926;-79
2022/09/18 14:07:23;;;;;;;;;;;12.60;99.90;;;;;;5037620;28;19950;-79
2022/09/18 14:09:53;;;;;;;;;;;12.40;99.90;;;;;;5044998;28;19924;-79
2022/09/18 14:12:19;;;;;;;;;;;12.30;99.90;;;;;;5050228;28;20409;-80
2022/09/18 14:15:03;;;;;;;;;;;12.20;99.90;;;;;;5054115;28;19921;-79
2022/09/18 14:17:30;;;;;;;;;;;12.30;99.90;;;;;;5037221;28;20383;-80
2022/09/18 14:20:00;;;;;;;;;;;12.10;99.90;;;;;;5054121;28;19920;-79
2022/09/18 14:22:30;;;;;;;;;;;12.10;99.90;;;;;;5054332;28;19927;-78
2022/09/18 14:24:58;;;;;;;;;;;12.20;99.90;;;;;;5037626;28;20003;-78
2022/09/18 14:27:27;;;;;;;;;;;12.20;99.90;;;;;;5053695;28;19927;-79